sensor_id;sensor_type;location;lat;lon;timestamp;P1;durP1;ratioP1;P2;durP2;ratioP2
76935;SDS011;65881;52.438;16.744;2023-05-29T00:02:22;13.35;;;5.53;;
76935;SDS011;65881;52.438;16.744;2023-05-29T00:04:48;8.90;;;5.15;;
76935;SDS011;65881;52.438;16.744;2023-05-29T00:07:22;7.78;;;4.85;;
76935;SDS011;65881;52.438;16.744;2023-05-29T00:09:48;7.80;;;4.88;;
76935;SDS011;65881;52.438;16.744;2023-05-29T00:12:15;7.97;;;5.85;;
76935;SDS011;65881;52.438;16.744;2023-05-29T00:14:41;8.45;;;5.75;;
76935;SDS011;65881;52.438;16.744;2023-05-29T00:17:07;8.77;;;4.72;;
76935;SDS011;65881;52.438;16.744;2023-05-29T00:19:33;7.85;;;4.88;;
76935;SDS011;65881;52.438;16.744;2023-05-29T00:21:59;7.95;;;4.75;;
76935;SDS011;65881;52.438;16.744;2023-05-29T00:24:24;7.78;;;4.93;;
76935;SDS011;65881;52.438;16.744;2023-05-29T00:26:50;9.52;;;5.07;;
76935;SDS011;65881;52.438;16.744;2023-05-29T00:29:16;6.95;;;4.55;;
76935;SDS011;65881;52.438;16.744;2023-05-29T00:31:42;8.43;;;4.78;;
76935;SDS011;65881;52.438;16.744;2023-05-29T00:34:07;8.80;;;5.45;;
76935;SDS011;65881;52.438;16.744;2023-05-29T00:36:33;9.15;;;4.45;;
76935;SDS011;65881;52.438;16.744;2023-05-29T00:38:59;7.32;;;4.88;;
76935;SDS011;65881;52.438;16.744;2023-05-29T00:41:25;11.07;;;5.72;;
76935;SDS011;65881;52.438;16.744;2023-05-29T00:43:51;8.82;;;4.55;;
76935;SDS011;65881;52.438;16.744;2023-05-29T00:46:16;8.95;;;5.53;;
76935;SDS011;65881;52.438;16.744;2023-05-29T00:48:44;9.13;;;6.70;;
76935;SDS011;65881;52.438;16.744;2023-05-29T00:51:10;7.05;;;4.95;;
76935;SDS011;65881;52.438;16.744;2023-05-29T00:53:37;8.60;;;5.50;;
76935;SDS011;65881;52.438;16.744;2023-05-29T00:56:06;7.70;;;6.03;;
76935;SDS011;65881;52.438;16.744;2023-05-29T00:58:32;8.80;;;5.47;;
76935;SDS011;65881;52.438;16.744;2023-05-29T01:00:58;11.40;;;6.43;;
76935;SDS011;65881;52.438;16.744;2023-05-29T01:03:24;9.02;;;5.15;;
76935;SDS011;65881;52.438;16.744;2023-05-29T01:05:49;8.55;;;5.53;;
76935;SDS011;65881;52.438;16.744;2023-05-29T01:08:17;9.25;;;5.45;;
76935;SDS011;65881;52.438;16.744;2023-05-29T01:10:43;12.07;;;6.25;;
76935;SDS011;65881;52.438;16.744;2023-05-29T01:13:11;8.43;;;6.32;;
76935;SDS011;65881;52.438;16.744;2023-05-29T01:18:22;10.15;;;6.40;;
76935;SDS011;65881;52.438;16.744;2023-05-29T01:29:00;14.25;;;7.35;;
76935;SDS011;65881;52.438;16.744;2023-05-29T01:31:27;12.77;;;6.80;;
76935;SDS011;65881;52.438;16.744;2023-05-29T01:36:23;10.35;;;7.40;;
76935;SDS011;65881;52.438;16.744;2023-05-29T01:38:53;12.18;;;6.63;;
76935;SDS011;65881;52.438;16.744;2023-05-29T01:41:21;12.38;;;7.47;;
76935;SDS011;65881;52.438;16.744;2023-05-29T01:43:48;12.80;;;7.05;;
76935;SDS011;65881;52.438;16.744;2023-05-29T01:46:15;11.60;;;6.55;;
76935;SDS011;65881;52.438;16.744;2023-05-29T01:48:41;13.13;;;7.13;;
76935;SDS011;65881;52.438;16.744;2023-05-29T01:51:08;11.90;;;7.40;;
76935;SDS011;65881;52.438;16.744;2023-05-29T01:53:38;10.00;;;6.80;;
76935;SDS011;65881;52.438;16.744;2023-05-29T01:56:05;11.38;;;7.00;;
76935;SDS011;65881;52.438;16.744;2023-05-29T01:58:31;11.57;;;6.22;;
76935;SDS011;65881;52.438;16.744;2023-05-29T02:00:59;10.77;;;7.13;;
76935;SDS011;65881;52.438;16.744;2023-05-29T02:03:26;15.02;;;7.47;;
76935;SDS011;65881;52.438;16.744;2023-05-29T02:05:54;14.85;;;8.00;;
76935;SDS011;65881;52.438;16.744;2023-05-29T02:08:21;10.30;;;7.03;;
76935;SDS011;65881;52.438;16.744;2023-05-29T02:10:46;14.98;;;7.90;;
76935;SDS011;65881;52.438;16.744;2023-05-29T02:15:41;10.73;;;6.45;;
76935;SDS011;65881;52.438;16.744;2023-05-29T02:18:10;11.02;;;7.78;;
76935;SDS011;65881;52.438;16.744;2023-05-29T02:20:41;9.23;;;6.03;;
76935;SDS011;65881;52.438;16.744;2023-05-29T02:23:09;12.57;;;6.75;;
76935;SDS011;65881;52.438;16.744;2023-05-29T02:25:35;10.10;;;6.07;;
76935;SDS011;65881;52.438;16.744;2023-05-29T02:28:02;10.13;;;6.28;;
76935;SDS011;65881;52.438;16.744;2023-05-29T02:30:28;8.10;;;6.10;;
76935;SDS011;65881;52.438;16.744;2023-05-29T02:32:54;7.65;;;6.50;;
76935;SDS011;65881;52.438;16.744;2023-05-29T02:35:20;13.45;;;6.85;;
76935;SDS011;65881;52.438;16.744;2023-05-29T02:37:47;10.05;;;6.38;;
76935;SDS011;65881;52.438;16.744;2023-05-29T02:40:15;9.88;;;6.57;;
76935;SDS011;65881;52.438;16.744;2023-05-29T02:42:42;10.50;;;6.88;;
76935;SDS011;65881;52.438;16.744;2023-05-29T02:45:08;11.35;;;6.60;;
76935;SDS011;65881;52.438;16.744;2023-05-29T02:47:39;14.25;;;7.45;;
76935;SDS011;65881;52.438;16.744;2023-05-29T02:50:11;10.48;;;6.80;;
76935;SDS011;65881;52.438;16.744;2023-05-29T02:52:39;10.82;;;6.53;;
76935;SDS011;65881;52.438;16.744;2023-05-29T02:55:06;10.23;;;5.82;;
76935;SDS011;65881;52.438;16.744;2023-05-29T02:57:32;12.43;;;6.90;;
76935;SDS011;65881;52.438;16.744;2023-05-29T03:00:01;13.40;;;7.25;;
76935;SDS011;65881;52.438;16.744;2023-05-29T03:02:30;8.73;;;6.82;;
76935;SDS011;65881;52.438;16.744;2023-05-29T03:04:57;10.18;;;6.38;;
76935;SDS011;65881;52.438;16.744;2023-05-29T03:07:22;11.13;;;6.88;;
76935;SDS011;65881;52.438;16.744;2023-05-29T03:10:09;11.95;;;7.32;;
76935;SDS011;65881;52.438;16.744;2023-05-29T03:12:37;14.05;;;6.20;;
76935;SDS011;65881;52.438;16.744;2023-05-29T03:15:03;11.60;;;7.35;;
76935;SDS011;65881;52.438;16.744;2023-05-29T03:17:29;11.52;;;6.82;;
76935;SDS011;65881;52.438;16.744;2023-05-29T03:19:54;10.40;;;5.80;;
76935;SDS011;65881;52.438;16.744;2023-05-29T03:22:20;9.23;;;6.60;;
76935;SDS011;65881;52.438;16.744;2023-05-29T03:24:46;12.70;;;6.55;;
76935;SDS011;65881;52.438;16.744;2023-05-29T03:27:12;12.60;;;7.13;;
76935;SDS011;65881;52.438;16.744;2023-05-29T03:29:38;10.70;;;6.07;;
76935;SDS011;65881;52.438;16.744;2023-05-29T03:32:04;7.75;;;5.82;;
76935;SDS011;65881;52.438;16.744;2023-05-29T03:34:30;10.73;;;7.20;;
76935;SDS011;65881;52.438;16.744;2023-05-29T03:36:56;11.65;;;6.55;;
76935;SDS011;65881;52.438;16.744;2023-05-29T03:39:22;13.48;;;9.38;;
76935;SDS011;65881;52.438;16.744;2023-05-29T03:41:48;10.50;;;6.18;;
76935;SDS011;65881;52.438;16.744;2023-05-29T03:44:14;10.48;;;6.30;;
76935;SDS011;65881;52.438;16.744;2023-05-29T03:46:40;11.00;;;5.85;;
76935;SDS011;65881;52.438;16.744;2023-05-29T03:49:06;10.70;;;6.88;;
76935;SDS011;65881;52.438;16.744;2023-05-29T03:51:32;13.45;;;7.70;;
76935;SDS011;65881;52.438;16.744;2023-05-29T03:53:57;10.00;;;6.55;;
76935;SDS011;65881;52.438;16.744;2023-05-29T03:56:23;9.77;;;6.57;;
76935;SDS011;65881;52.438;16.744;2023-05-29T03:58:49;11.00;;;6.28;;
76935;SDS011;65881;52.438;16.744;2023-05-29T04:01:15;7.22;;;5.35;;
76935;SDS011;65881;52.438;16.744;2023-05-29T04:03:40;9.93;;;6.53;;
76935;SDS011;65881;52.438;16.744;2023-05-29T04:06:07;9.07;;;5.72;;
76935;SDS011;65881;52.438;16.744;2023-05-29T04:08:33;9.95;;;5.80;;
76935;SDS011;65881;52.438;16.744;2023-05-29T04:10:58;8.80;;;6.40;;
76935;SDS011;65881;52.438;16.744;2023-05-29T04:13:26;12.32;;;6.10;;
76935;SDS011;65881;52.438;16.744;2023-05-29T04:15:52;14.40;;;6.60;;
76935;SDS011;65881;52.438;16.744;2023-05-29T04:18:18;9.50;;;6.10;;
76935;SDS011;65881;52.438;16.744;2023-05-29T04:20:44;11.45;;;6.38;;
76935;SDS011;65881;52.438;16.744;2023-05-29T04:23:12;9.32;;;5.72;;
76935;SDS011;65881;52.438;16.744;2023-05-29T04:25:40;11.25;;;6.90;;
76935;SDS011;65881;52.438;16.744;2023-05-29T04:28:06;11.13;;;7.38;;
76935;SDS011;65881;52.438;16.744;2023-05-29T04:30:31;9.70;;;6.68;;
76935;SDS011;65881;52.438;16.744;2023-05-29T04:32:58;8.13;;;5.80;;
76935;SDS011;65881;52.438;16.744;2023-05-29T04:35:24;10.80;;;5.85;;
76935;SDS011;65881;52.438;16.744;2023-05-29T04:37:50;12.32;;;6.70;;
76935;SDS011;65881;52.438;16.744;2023-05-29T04:40:15;9.60;;;6.60;;
76935;SDS011;65881;52.438;16.744;2023-05-29T04:42:42;13.07;;;5.60;;
76935;SDS011;65881;52.438;16.744;2023-05-29T04:45:10;9.00;;;6.63;;
76935;SDS011;65881;52.438;16.744;2023-05-29T04:47:36;13.18;;;7.07;;
76935;SDS011;65881;52.438;16.744;2023-05-29T04:50:29;13.10;;;7.25;;
76935;SDS011;65881;52.438;16.744;2023-05-29T04:52:56;12.98;;;6.43;;
76935;SDS011;65881;52.438;16.744;2023-05-29T04:55:22;12.73;;;6.35;;
76935;SDS011;65881;52.438;16.744;2023-05-29T04:57:49;10.48;;;5.82;;
76935;SDS011;65881;52.438;16.744;2023-05-29T05:00:15;14.45;;;6.40;;
76935;SDS011;65881;52.438;16.744;2023-05-29T05:02:43;14.35;;;6.90;;
76935;SDS011;65881;52.438;16.744;2023-05-29T05:05:15;8.75;;;6.07;;
76935;SDS011;65881;52.438;16.744;2023-05-29T05:07:41;12.90;;;6.25;;
76935;SDS011;65881;52.438;16.744;2023-05-29T05:10:07;9.95;;;6.20;;
76935;SDS011;65881;52.438;16.744;2023-05-29T05:12:33;13.65;;;6.53;;
76935;SDS011;65881;52.438;16.744;2023-05-29T05:14:59;13.25;;;5.88;;
76935;SDS011;65881;52.438;16.744;2023-05-29T05:17:25;11.63;;;5.78;;
76935;SDS011;65881;52.438;16.744;2023-05-29T05:19:52;11.65;;;6.13;;
76935;SDS011;65881;52.438;16.744;2023-05-29T05:22:18;10.73;;;6.38;;
76935;SDS011;65881;52.438;16.744;2023-05-29T05:24:47;10.05;;;5.72;;
76935;SDS011;65881;52.438;16.744;2023-05-29T05:27:25;10.80;;;5.57;;
76935;SDS011;65881;52.438;16.744;2023-05-29T05:29:52;12.50;;;6.32;;
76935;SDS011;65881;52.438;16.744;2023-05-29T05:32:18;10.50;;;6.75;;
76935;SDS011;65881;52.438;16.744;2023-05-29T05:34:43;9.57;;;5.22;;
76935;SDS011;65881;52.438;16.744;2023-05-29T05:37:09;12.82;;;6.07;;
76935;SDS011;65881;52.438;16.744;2023-05-29T05:39:36;14.07;;;5.43;;
76935;SDS011;65881;52.438;16.744;2023-05-29T05:42:01;8.88;;;5.53;;
76935;SDS011;65881;52.438;16.744;2023-05-29T05:44:27;10.50;;;5.35;;
76935;SDS011;65881;52.438;16.744;2023-05-29T05:46:53;8.13;;;4.93;;
76935;SDS011;65881;52.438;16.744;2023-05-29T05:49:19;10.98;;;6.18;;
76935;SDS011;65881;52.438;16.744;2023-05-29T05:51:51;8.50;;;4.97;;
76935;SDS011;65881;52.438;16.744;2023-05-29T05:54:17;7.70;;;5.45;;
76935;SDS011;65881;52.438;16.744;2023-05-29T05:56:42;8.77;;;5.55;;
76935;SDS011;65881;52.438;16.744;2023-05-29T05:59:08;10.88;;;5.85;;
76935;SDS011;65881;52.438;16.744;2023-05-29T06:01:36;8.20;;;5.93;;
76935;SDS011;65881;52.438;16.744;2023-05-29T06:04:02;19.90;;;6.63;;
76935;SDS011;65881;52.438;16.744;2023-05-29T06:06:27;14.45;;;5.68;;
76935;SDS011;65881;52.438;16.744;2023-05-29T06:08:53;10.80;;;5.60;;
76935;SDS011;65881;52.438;16.744;2023-05-29T06:11:24;11.45;;;5.82;;
76935;SDS011;65881;52.438;16.744;2023-05-29T06:13:50;15.10;;;7.03;;
76935;SDS011;65881;52.438;16.744;2023-05-29T06:16:36;9.88;;;5.25;;
76935;SDS011;65881;52.438;16.744;2023-05-29T06:19:02;6.90;;;4.88;;
76935;SDS011;65881;52.438;16.744;2023-05-29T06:21:29;6.88;;;5.00;;
76935;SDS011;65881;52.438;16.744;2023-05-29T06:23:55;7.13;;;4.20;;
76935;SDS011;65881;52.438;16.744;2023-05-29T06:26:21;8.85;;;4.28;;
76935;SDS011;65881;52.438;16.744;2023-05-29T06:28:58;8.18;;;4.60;;
76935;SDS011;65881;52.438;16.744;2023-05-29T06:31:24;11.07;;;4.93;;
76935;SDS011;65881;52.438;16.744;2023-05-29T06:33:50;8.40;;;4.22;;
76935;SDS011;65881;52.438;16.744;2023-05-29T06:36:54;6.55;;;4.50;;
76935;SDS011;65881;52.438;16.744;2023-05-29T06:39:21;12.30;;;5.75;;
76935;SDS011;65881;52.438;16.744;2023-05-29T06:41:47;8.68;;;3.90;;
76935;SDS011;65881;52.438;16.744;2023-05-29T06:44:31;10.43;;;4.32;;
76935;SDS011;65881;52.438;16.744;2023-05-29T06:46:56;7.10;;;3.97;;
76935;SDS011;65881;52.438;16.744;2023-05-29T06:49:22;10.20;;;4.80;;
76935;SDS011;65881;52.438;16.744;2023-05-29T06:51:48;11.38;;;4.93;;
76935;SDS011;65881;52.438;16.744;2023-05-29T06:54:14;11.45;;;4.95;;
76935;SDS011;65881;52.438;16.744;2023-05-29T06:56:40;10.35;;;4.40;;
76935;SDS011;65881;52.438;16.744;2023-05-29T06:59:06;7.72;;;3.83;;
76935;SDS011;65881;52.438;16.744;2023-05-29T07:01:32;8.20;;;4.00;;
76935;SDS011;65881;52.438;16.744;2023-05-29T07:03:58;11.85;;;4.30;;
76935;SDS011;65881;52.438;16.744;2023-05-29T07:06:24;7.35;;;4.50;;
76935;SDS011;65881;52.438;16.744;2023-05-29T07:08:50;12.57;;;4.43;;
76935;SDS011;65881;52.438;16.744;2023-05-29T07:11:15;9.07;;;5.57;;
76935;SDS011;65881;52.438;16.744;2023-05-29T07:17:14;6.90;;;3.50;;
76935;SDS011;65881;52.438;16.744;2023-05-29T07:19:40;6.65;;;3.78;;
76935;SDS011;65881;52.438;16.744;2023-05-29T07:22:06;9.07;;;4.25;;
76935;SDS011;65881;52.438;16.744;2023-05-29T07:27:04;8.57;;;3.88;;
76935;SDS011;65881;52.438;16.744;2023-05-29T07:29:30;10.57;;;4.55;;
76935;SDS011;65881;52.438;16.744;2023-05-29T07:31:56;7.07;;;3.58;;
76935;SDS011;65881;52.438;16.744;2023-05-29T07:34:23;7.47;;;3.78;;
76935;SDS011;65881;52.438;16.744;2023-05-29T07:36:56;7.25;;;4.70;;
76935;SDS011;65881;52.438;16.744;2023-05-29T07:42:44;5.97;;;3.70;;
76935;SDS011;65881;52.438;16.744;2023-05-29T07:45:11;6.00;;;3.42;;
76935;SDS011;65881;52.438;16.744;2023-05-29T07:47:45;8.20;;;3.85;;
76935;SDS011;65881;52.438;16.744;2023-05-29T07:50:16;9.57;;;4.28;;
76935;SDS011;65881;52.438;16.744;2023-05-29T07:52:43;5.32;;;3.60;;
76935;SDS011;65881;52.438;16.744;2023-05-29T07:57:53;6.13;;;3.80;;
76935;SDS011;65881;52.438;16.744;2023-05-29T08:00:19;10.88;;;4.05;;
76935;SDS011;65881;52.438;16.744;2023-05-29T08:02:49;13.13;;;3.90;;
76935;SDS011;65881;52.438;16.744;2023-05-29T08:07:47;7.53;;;4.20;;
76935;SDS011;65881;52.438;16.744;2023-05-29T08:10:13;6.53;;;3.35;;
76935;SDS011;65881;52.438;16.744;2023-05-29T08:12:39;8.65;;;3.85;;
76935;SDS011;65881;52.438;16.744;2023-05-29T08:15:08;7.90;;;3.60;;
76935;SDS011;65881;52.438;16.744;2023-05-29T08:17:34;8.52;;;3.30;;
76935;SDS011;65881;52.438;16.744;2023-05-29T08:20:00;9.75;;;4.35;;
76935;SDS011;65881;52.438;16.744;2023-05-29T08:22:29;7.43;;;3.67;;
76935;SDS011;65881;52.438;16.744;2023-05-29T08:24:59;8.65;;;3.70;;
76935;SDS011;65881;52.438;16.744;2023-05-29T08:29:50;11.75;;;5.30;;
76935;SDS011;65881;52.438;16.744;2023-05-29T08:32:28;5.68;;;3.53;;
76935;SDS011;65881;52.438;16.744;2023-05-29T08:37:36;7.85;;;4.05;;
76935;SDS011;65881;52.438;16.744;2023-05-29T08:43:15;5.40;;;3.67;;
76935;SDS011;65881;52.438;16.744;2023-05-29T08:45:44;8.32;;;3.45;;
76935;SDS011;65881;52.438;16.744;2023-05-29T08:48:12;8.43;;;3.85;;
76935;SDS011;65881;52.438;16.744;2023-05-29T08:50:46;12.68;;;4.70;;
76935;SDS011;65881;52.438;16.744;2023-05-29T08:53:13;5.55;;;3.50;;
76935;SDS011;65881;52.438;16.744;2023-05-29T08:55:44;7.55;;;3.20;;
76935;SDS011;65881;52.438;16.744;2023-05-29T08:58:22;6.28;;;3.50;;
76935;SDS011;65881;52.438;16.744;2023-05-29T09:01:01;8.77;;;3.75;;
76935;SDS011;65881;52.438;16.744;2023-05-29T09:03:27;11.93;;;4.13;;
76935;SDS011;65881;52.438;16.744;2023-05-29T09:05:53;6.05;;;3.53;;
76935;SDS011;65881;52.438;16.744;2023-05-29T09:08:28;8.52;;;3.97;;
76935;SDS011;65881;52.438;16.744;2023-05-29T09:10:56;8.82;;;4.60;;
76935;SDS011;65881;52.438;16.744;2023-05-29T09:13:27;5.47;;;3.35;;
76935;SDS011;65881;52.438;16.744;2023-05-29T09:16:00;7.13;;;3.25;;
76935;SDS011;65881;52.438;16.744;2023-05-29T09:18:35;5.53;;;3.35;;
76935;SDS011;65881;52.438;16.744;2023-05-29T09:21:05;7.60;;;4.03;;
76935;SDS011;65881;52.438;16.744;2023-05-29T09:23:35;4.68;;;3.28;;
76935;SDS011;65881;52.438;16.744;2023-05-29T09:26:05;6.38;;;3.50;;
76935;SDS011;65881;52.438;16.744;2023-05-29T09:28:30;5.78;;;3.78;;
76935;SDS011;65881;52.438;16.744;2023-05-29T09:31:13;7.88;;;3.53;;
76935;SDS011;65881;52.438;16.744;2023-05-29T09:33:48;6.22;;;4.03;;
76935;SDS011;65881;52.438;16.744;2023-05-29T09:36:23;6.35;;;3.17;;
76935;SDS011;65881;52.438;16.744;2023-05-29T09:38:49;8.25;;;3.60;;
76935;SDS011;65881;52.438;16.744;2023-05-29T09:41:22;7.50;;;3.70;;
76935;SDS011;65881;52.438;16.744;2023-05-29T09:43:53;6.68;;;3.72;;
76935;SDS011;65881;52.438;16.744;2023-05-29T09:46:20;5.57;;;3.90;;
76935;SDS011;65881;52.438;16.744;2023-05-29T09:48:48;4.88;;;3.58;;
76935;SDS011;65881;52.438;16.744;2023-05-29T09:51:20;5.97;;;3.75;;
76935;SDS011;65881;52.438;16.744;2023-05-29T09:53:49;11.82;;;3.75;;
76935;SDS011;65881;52.438;16.744;2023-05-29T09:56:25;6.28;;;3.95;;
76935;SDS011;65881;52.438;16.744;2023-05-29T09:58:53;5.18;;;3.30;;
76935;SDS011;65881;52.438;16.744;2023-05-29T10:01:23;4.88;;;3.20;;
76935;SDS011;65881;52.438;16.744;2023-05-29T10:04:00;6.93;;;3.55;;
76935;SDS011;65881;52.438;16.744;2023-05-29T10:06:33;9.23;;;3.40;;
76935;SDS011;65881;52.438;16.744;2023-05-29T10:09:07;5.40;;;3.30;;
76935;SDS011;65881;52.438;16.744;2023-05-29T10:11:49;5.50;;;3.35;;
76935;SDS011;65881;52.438;16.744;2023-05-29T10:17:07;5.10;;;3.03;;
76935;SDS011;65881;52.438;16.744;2023-05-29T10:19:34;7.57;;;3.22;;
76935;SDS011;65881;52.438;16.744;2023-05-29T10:22:08;3.80;;;3.15;;
76935;SDS011;65881;52.438;16.744;2023-05-29T10:24:35;5.88;;;3.30;;
76935;SDS011;65881;52.438;16.744;2023-05-29T10:27:02;6.32;;;3.63;;
76935;SDS011;65881;52.438;16.744;2023-05-29T10:29:39;7.80;;;3.58;;
76935;SDS011;65881;52.438;16.744;2023-05-29T10:37:37;6.80;;;3.63;;
76935;SDS011;65881;52.438;16.744;2023-05-29T10:40:08;7.15;;;3.60;;
76935;SDS011;65881;52.438;16.744;2023-05-29T10:45:10;8.52;;;3.80;;
76935;SDS011;65881;52.438;16.744;2023-05-29T10:48:41;5.43;;;3.40;;
76935;SDS011;65881;52.438;16.744;2023-05-29T10:51:00;6.45;;;3.88;;
76935;SDS011;65881;52.438;16.744;2023-05-29T10:53:32;4.60;;;3.65;;
76935;SDS011;65881;52.438;16.744;2023-05-29T10:56:00;6.40;;;3.40;;
76935;SDS011;65881;52.438;16.744;2023-05-29T10:58:27;5.00;;;2.95;;
76935;SDS011;65881;52.438;16.744;2023-05-29T11:00:55;6.25;;;3.30;;
76935;SDS011;65881;52.438;16.744;2023-05-29T11:03:32;6.57;;;4.25;;
76935;SDS011;65881;52.438;16.744;2023-05-29T11:11:07;7.22;;;3.63;;
76935;SDS011;65881;52.438;16.744;2023-05-29T11:13:37;6.95;;;3.80;;
76935;SDS011;65881;52.438;16.744;2023-05-29T11:16:09;6.15;;;3.53;;
76935;SDS011;65881;52.438;16.744;2023-05-29T11:18:46;6.93;;;4.13;;
76935;SDS011;65881;52.438;16.744;2023-05-29T11:24:26;6.15;;;4.10;;
76935;SDS011;65881;52.438;16.744;2023-05-29T11:26:56;4.88;;;3.40;;
76935;SDS011;65881;52.438;16.744;2023-05-29T11:29:31;4.50;;;3.50;;
76935;SDS011;65881;52.438;16.744;2023-05-29T11:32:03;8.32;;;4.15;;
76935;SDS011;65881;52.438;16.744;2023-05-29T11:34:32;5.65;;;3.78;;
76935;SDS011;65881;52.438;16.744;2023-05-29T11:36:59;7.13;;;3.47;;
76935;SDS011;65881;52.438;16.744;2023-05-29T11:39:25;4.95;;;3.05;;
76935;SDS011;65881;52.438;16.744;2023-05-29T11:41:51;5.05;;;3.03;;
76935;SDS011;65881;52.438;16.744;2023-05-29T11:44:18;4.32;;;3.08;;
76935;SDS011;65881;52.438;16.744;2023-05-29T11:46:44;4.78;;;3.08;;
76935;SDS011;65881;52.438;16.744;2023-05-29T11:49:13;7.00;;;3.72;;
76935;SDS011;65881;52.438;16.744;2023-05-29T11:51:52;7.35;;;2.92;;
76935;SDS011;65881;52.438;16.744;2023-05-29T11:54:19;6.40;;;3.35;;
76935;SDS011;65881;52.438;16.744;2023-05-29T11:56:45;7.07;;;3.38;;
76935;SDS011;65881;52.438;16.744;2023-05-29T11:59:12;6.07;;;3.20;;
76935;SDS011;65881;52.438;16.744;2023-05-29T12:01:39;7.13;;;3.15;;
76935;SDS011;65881;52.438;16.744;2023-05-29T12:04:14;4.70;;;3.28;;
76935;SDS011;65881;52.438;16.744;2023-05-29T12:06:43;7.25;;;3.50;;
76935;SDS011;65881;52.438;16.744;2023-05-29T12:09:26;9.35;;;3.47;;
76935;SDS011;65881;52.438;16.744;2023-05-29T12:11:53;5.00;;;3.10;;
76935;SDS011;65881;52.438;16.744;2023-05-29T12:14:26;4.70;;;3.17;;
76935;SDS011;65881;52.438;16.744;2023-05-29T12:17:00;5.13;;;2.97;;
76935;SDS011;65881;52.438;16.744;2023-05-29T12:19:35;7.05;;;3.53;;
76935;SDS011;65881;52.438;16.744;2023-05-29T12:22:04;6.80;;;3.13;;
76935;SDS011;65881;52.438;16.744;2023-05-29T12:24:30;7.10;;;2.90;;
76935;SDS011;65881;52.438;16.744;2023-05-29T12:26:56;6.25;;;3.20;;
76935;SDS011;65881;52.438;16.744;2023-05-29T12:29:32;6.65;;;2.85;;
76935;SDS011;65881;52.438;16.744;2023-05-29T12:34:26;4.35;;;3.00;;
76935;SDS011;65881;52.438;16.744;2023-05-29T12:37:08;5.80;;;3.30;;
76935;SDS011;65881;52.438;16.744;2023-05-29T12:39:36;7.72;;;3.03;;
76935;SDS011;65881;52.438;16.744;2023-05-29T12:42:16;6.60;;;3.38;;
76935;SDS011;65881;52.438;16.744;2023-05-29T12:44:42;4.65;;;3.15;;
76935;SDS011;65881;52.438;16.744;2023-05-29T12:47:14;5.82;;;3.22;;
76935;SDS011;65881;52.438;16.744;2023-05-29T12:49:47;6.60;;;2.95;;
76935;SDS011;65881;52.438;16.744;2023-05-29T12:52:30;6.25;;;3.10;;
76935;SDS011;65881;52.438;16.744;2023-05-29T12:54:56;6.28;;;3.05;;
76935;SDS011;65881;52.438;16.744;2023-05-29T12:57:21;3.88;;;3.03;;
76935;SDS011;65881;52.438;16.744;2023-05-29T12:59:47;6.40;;;3.00;;
76935;SDS011;65881;52.438;16.744;2023-05-29T13:02:13;7.13;;;3.95;;
76935;SDS011;65881;52.438;16.744;2023-05-29T13:04:40;6.65;;;3.67;;
76935;SDS011;65881;52.438;16.744;2023-05-29T13:09:55;8.10;;;3.20;;
76935;SDS011;65881;52.438;16.744;2023-05-29T13:12:21;4.90;;;3.50;;
76935;SDS011;65881;52.438;16.744;2023-05-29T13:14:47;5.65;;;3.55;;
76935;SDS011;65881;52.438;16.744;2023-05-29T13:17:12;4.57;;;3.65;;
76935;SDS011;65881;52.438;16.744;2023-05-29T13:19:38;4.97;;;3.47;;
76935;SDS011;65881;52.438;16.744;2023-05-29T13:22:06;7.63;;;2.85;;
76935;SDS011;65881;52.438;16.744;2023-05-29T13:24:47;7.07;;;3.30;;
76935;SDS011;65881;52.438;16.744;2023-05-29T13:27:12;3.67;;;2.90;;
76935;SDS011;65881;52.438;16.744;2023-05-29T13:32:16;3.85;;;2.92;;
76935;SDS011;65881;52.438;16.744;2023-05-29T13:34:47;4.15;;;3.40;;
76935;SDS011;65881;52.438;16.744;2023-05-29T13:37:16;5.20;;;2.97;;
76935;SDS011;65881;52.438;16.744;2023-05-29T13:39:42;9.30;;;3.42;;
76935;SDS011;65881;52.438;16.744;2023-05-29T13:42:08;3.80;;;3.08;;
76935;SDS011;65881;52.438;16.744;2023-05-29T13:44:37;6.40;;;3.30;;
76935;SDS011;65881;52.438;16.744;2023-05-29T13:47:04;5.10;;;3.63;;
76935;SDS011;65881;52.438;16.744;2023-05-29T13:49:30;5.25;;;2.50;;
76935;SDS011;65881;52.438;16.744;2023-05-29T13:51:56;4.90;;;2.90;;
76935;SDS011;65881;52.438;16.744;2023-05-29T13:54:22;6.10;;;3.35;;
76935;SDS011;65881;52.438;16.744;2023-05-29T13:56:56;4.10;;;3.17;;
76935;SDS011;65881;52.438;16.744;2023-05-29T13:59:23;3.67;;;2.80;;
76935;SDS011;65881;52.438;16.744;2023-05-29T14:01:49;7.15;;;3.20;;
76935;SDS011;65881;52.438;16.744;2023-05-29T14:04:15;6.03;;;4.00;;
76935;SDS011;65881;52.438;16.744;2023-05-29T14:06:41;4.53;;;3.10;;
76935;SDS011;65881;52.438;16.744;2023-05-29T14:09:07;6.28;;;3.55;;
76935;SDS011;65881;52.438;16.744;2023-05-29T14:11:35;6.82;;;3.20;;
76935;SDS011;65881;52.438;16.744;2023-05-29T14:14:02;4.13;;;2.78;;
76935;SDS011;65881;52.438;16.744;2023-05-29T14:16:29;5.38;;;3.50;;
76935;SDS011;65881;52.438;16.744;2023-05-29T14:18:55;4.38;;;3.15;;
76935;SDS011;65881;52.438;16.744;2023-05-29T14:21:21;5.82;;;3.00;;
76935;SDS011;65881;52.438;16.744;2023-05-29T14:23:47;6.03;;;2.80;;
76935;SDS011;65881;52.438;16.744;2023-05-29T14:26:13;7.05;;;3.22;;
76935;SDS011;65881;52.438;16.744;2023-05-29T14:28:38;5.13;;;2.97;;
76935;SDS011;65881;52.438;16.744;2023-05-29T14:31:04;5.35;;;3.08;;
76935;SDS011;65881;52.438;16.744;2023-05-29T14:33:31;4.25;;;2.97;;
76935;SDS011;65881;52.438;16.744;2023-05-29T14:35:57;6.00;;;3.60;;
76935;SDS011;65881;52.438;16.744;2023-05-29T14:38:23;7.18;;;3.20;;
76935;SDS011;65881;52.438;16.744;2023-05-29T14:40:50;6.53;;;3.20;;
76935;SDS011;65881;52.438;16.744;2023-05-29T14:43:19;4.05;;;2.80;;
76935;SDS011;65881;52.438;16.744;2023-05-29T14:45:48;4.20;;;2.75;;
76935;SDS011;65881;52.438;16.744;2023-05-29T14:48:14;7.20;;;3.15;;
76935;SDS011;65881;52.438;16.744;2023-05-29T14:50:41;7.35;;;2.95;;
76935;SDS011;65881;52.438;16.744;2023-05-29T14:53:12;5.18;;;2.45;;
76935;SDS011;65881;52.438;16.744;2023-05-29T14:55:37;11.60;;;3.20;;
76935;SDS011;65881;52.438;16.744;2023-05-29T14:58:04;5.80;;;3.53;;
76935;SDS011;65881;52.438;16.744;2023-05-29T15:00:30;8.23;;;4.65;;
76935;SDS011;65881;52.438;16.744;2023-05-29T15:02:56;3.97;;;2.70;;
76935;SDS011;65881;52.438;16.744;2023-05-29T15:05:24;5.10;;;3.10;;
76935;SDS011;65881;52.438;16.744;2023-05-29T15:07:51;4.68;;;2.70;;
76935;SDS011;65881;52.438;16.744;2023-05-29T15:10:19;6.28;;;3.35;;
76935;SDS011;65881;52.438;16.744;2023-05-29T15:12:46;6.60;;;3.58;;
76935;SDS011;65881;52.438;16.744;2023-05-29T15:15:11;5.55;;;3.58;;
76935;SDS011;65881;52.438;16.744;2023-05-29T15:17:37;7.57;;;3.67;;
76935;SDS011;65881;52.438;16.744;2023-05-29T15:20:06;5.38;;;2.83;;
76935;SDS011;65881;52.438;16.744;2023-05-29T15:22:32;7.13;;;4.68;;
76935;SDS011;65881;52.438;16.744;2023-05-29T15:24:58;3.85;;;2.60;;
76935;SDS011;65881;52.438;16.744;2023-05-29T15:27:26;4.93;;;2.92;;
76935;SDS011;65881;52.438;16.744;2023-05-29T15:30:07;4.88;;;2.60;;
76935;SDS011;65881;52.438;16.744;2023-05-29T15:32:37;8.25;;;2.80;;
76935;SDS011;65881;52.438;16.744;2023-05-29T15:35:04;4.32;;;3.20;;
76935;SDS011;65881;52.438;16.744;2023-05-29T15:37:31;6.18;;;3.30;;
76935;SDS011;65881;52.438;16.744;2023-05-29T15:39:57;6.15;;;3.60;;
76935;SDS011;65881;52.438;16.744;2023-05-29T15:42:26;6.03;;;3.22;;
76935;SDS011;65881;52.438;16.744;2023-05-29T15:44:52;5.53;;;3.00;;